Time;durP1;ratioP1;P1;durP2;ratioP2;P2;SDS_P1;SDS_P2;PMS_P1;PMS_P2;Temp;Humidity;BMP_temperature;BMP_pressure;BME280_temperature;BME280_humidity;BME280_pressure;Samples;Min_cycle;Max_cycle;Signal;HPM_P1;HPM_P2
2021/08/01 00:00:15;;;;;;;2.53;1.70;;;19.60;77.40;;;;;;10332284;28;20809;-33
2021/08/01 00:05:37;;;;;;;2.43;1.80;;;19.60;77.40;;;;;;10330620;28;20210;-31
2021/08/01 00:11:01;;;;;;;3.90;2.27;;;19.60;77.30;;;;;;10334709;28;20222;-31
2021/08/01 00:16:24;;;;;;;3.87;2.00;;;19.70;77.40;;;;;;10335433;28;20257;-31
2021/08/01 00:21:46;;;;;;;4.30;2.10;;;19.70;77.30;;;;;;10329323;28;20195;-30
2021/08/01 00:27:10;;;;;;;3.50;2.10;;;19.60;78.10;;;;;;10303800;28;20227;-30
2021/08/01 00:32:32;;;;;;;3.93;1.87;;;19.60;77.50;;;;;;10297459;28;20215;-34
2021/08/01 00:37:54;;;;;;;4.13;2.07;;;19.60;77.60;;;;;;10329329;28;20735;-34
2021/08/01 00:43:17;;;;;;;4.67;2.03;;;19.60;77.70;;;;;;10335150;28;20204;-33
2021/08/01 00:48:40;;;;;;;5.23;2.33;;;19.60;77.70;;;;;;10315395;28;20226;-31
2021/08/01 00:54:03;;;;;;;3.33;2.10;;;19.50;77.90;;;;;;10333487;28;20203;-29
2021/08/01 00:59:27;;;;;;;4.73;2.33;;;19.50;78.00;;;;;;10333279;28;20238;-30
2021/08/01 01:04:55;;;;;;;3.50;2.47;;;19.50;78.00;;;;;;10334029;28;20211;-30
2021/08/01 01:10:26;;;;;;;7.17;2.77;;;19.50;78.10;;;;;;10332442;28;20235;-29
2021/08/01 01:15:53;;;;;;;5.20;2.60;;;19.40;78.20;;;;;;10293123;28;20191;-32
2021/08/01 01:21:32;;;;;;;5.87;2.80;;;19.50;78.40;;;;;;10303033;28;20278;-30
2021/08/01 01:27:09;;;;;;;3.37;2.57;;;19.50;78.50;;;;;;10329758;28;20219;-30
2021/08/01 01:32:38;;;;;;;4.73;2.83;;;19.50;78.40;;;;;;10328608;28;20556;-32
2021/08/01 01:38:01;;;;;;;4.93;2.93;;;19.50;78.50;;;;;;10313445;28;20236;-31
2021/08/01 01:43:25;;;;;;;5.10;2.90;;;19.50;78.50;;;;;;10293219;28;20270;-30
2021/08/01 01:48:47;;;;;;;4.17;2.97;;;19.50;78.30;;;;;;10304504;28;20223;-30
2021/08/01 01:54:11;;;;;;;7.77;3.80;;;19.50;78.10;;;;;;10332533;28;20210;-30
2021/08/01 01:59:34;;;;;;;3.87;2.90;;;19.50;78.20;;;;;;10321638;28;20227;-30
2021/08/01 02:04:56;;;;;;;7.40;3.30;;;19.50;78.10;;;;;;10312604;28;20223;-30
2021/08/01 02:10:27;;;;;;;6.03;4.03;;;19.60;78.10;;;;;;10329466;28;20223;-30
2021/08/01 02:15:55;;;;;;;5.80;3.27;;;19.50;77.90;;;;;;10332496;28;20667;-33
2021/08/01 02:21:19;;;;;;;6.23;3.57;;;19.50;77.70;;;;;;10337279;28;20215;-29
2021/08/01 02:26:44;;;;;;;4.90;3.50;;;19.60;77.90;;;;;;10340789;28;20293;-30
2021/08/01 02:32:08;;;;;;;8.30;3.90;;;19.50;77.70;;;;;;10336193;28;20210;-30
2021/08/01 02:37:33;;;;;;;6.93;4.00;;;19.50;77.90;;;;;;10333344;28;20223;-33
2021/08/01 02:42:58;;;;;;;6.93;3.73;;;19.40;78.10;;;;;;10338897;28;20199;-33
2021/08/01 02:48:22;;;;;;;5.37;4.37;;;19.40;78.70;;;;;;10338903;28;20226;-30
2021/08/01 02:53:48;;;;;;;7.10;4.30;;;19.40;78.10;;;;;;10334481;28;20213;-29
2021/08/01 02:59:13;;;;;;;4.80;4.30;;;19.30;78.10;;;;;;10352742;23;20217;-24
2021/08/01 03:04:38;;;;;;;5.67;4.33;;;19.40;78.10;;;;;;10451845;28;20206;-21
2021/08/01 03:10:01;;;;;;;5.47;4.43;;;19.40;78.10;;;;;;10414950;28;20711;-23
2021/08/01 03:15:24;;;;;;;8.20;4.70;;;19.40;78.10;;;;;;10415665;28;20677;-24
2021/08/01 03:20:46;;;;;;;7.10;4.97;;;19.40;78.00;;;;;;10420313;28;20212;-20
2021/08/01 03:26:08;;;;;;;7.40;4.53;;;19.40;78.00;;;;;;10455419;28;20217;-22
2021/08/01 03:31:32;;;;;;;7.17;4.93;;;19.40;78.00;;;;;;10439957;28;20221;-21
2021/08/01 03:36:56;;;;;;;8.20;5.00;;;19.40;78.00;;;;;;10455899;28;20194;-23
2021/08/01 03:42:18;;;;;;;6.87;5.30;;;19.40;78.00;;;;;;10455099;28;20584;-23
2021/08/01 03:47:42;;;;;;;6.43;4.97;;;19.40;77.70;;;;;;10454357;28;20217;-21
2021/08/01 03:53:04;;;;;;;7.17;5.20;;;19.50;77.60;;;;;;10454803;28;20216;-22
2021/08/01 03:58:26;;;;;;;7.13;5.30;;;19.50;78.00;;;;;;10455116;28;20196;-23
2021/08/01 04:03:49;;;;;;;9.50;5.57;;;19.40;77.80;;;;;;10453937;28;20208;-22
2021/08/01 04:09:11;;;;;;;6.03;5.43;;;19.40;78.10;;;;;;10447247;28;20231;-21
2021/08/01 04:14:33;;;;;;;7.47;5.93;;;19.40;78.10;;;;;;10454187;28;20205;-22
2021/08/01 04:19:57;;;;;;;11.30;6.00;;;19.40;77.90;;;;;;10454175;28;20223;-22
2021/08/01 04:25:19;;;;;;;9.80;6.10;;;19.40;78.10;;;;;;10453430;28;20213;-22
2021/08/01 04:30:41;;;;;;;7.00;5.90;;;19.40;77.80;;;;;;10453069;28;20217;-23
2021/08/01 04:36:05;;;;;;;6.83;5.80;;;19.40;78.20;;;;;;10412381;28;20204;-21
2021/08/01 04:41:27;;;;;;;8.23;6.40;;;19.40;78.30;;;;;;10441602;28;20217;-21
2021/08/01 04:46:49;;;;;;;5.87;5.37;;;19.40;78.30;;;;;;10452453;28;20213;-21
2021/08/01 04:52:18;;;;;;;8.00;5.93;;;19.40;78.30;;;;;;10419233;28;20224;-21
2021/08/01 04:57:40;;;;;;;6.67;5.50;;;19.40;78.10;;;;;;10447961;28;20190;-23
2021/08/01 05:03:03;;;;;;;9.57;6.43;;;19.40;78.00;;;;;;10463026;28;20229;-21
2021/08/01 05:08:26;;;;;;;7.80;6.07;;;19.40;78.40;;;;;;10452598;28;20208;-23
2021/08/01 05:13:49;;;;;;;9.57;5.97;;;19.40;78.30;;;;;;10452334;28;20201;-21
2021/08/01 05:19:11;;;;;;;7.00;6.30;;;19.40;78.40;;;;;;10451377;28;20216;-22
2021/08/01 05:24:36;;;;;;;8.67;6.20;;;19.50;78.50;;;;;;10452181;28;20197;-23
2021/08/01 05:29:58;;;;;;;7.67;5.70;;;19.50;78.50;;;;;;10451196;28;20213;-23
2021/08/01 05:35:20;;;;;;;6.80;6.03;;;19.50;78.20;;;;;;10450523;28;20200;-22
2021/08/01 05:40:45;;;;;;;6.77;5.80;;;19.50;78.20;;;;;;10443070;28;20225;-21
2021/08/01 05:46:09;;;;;;;6.27;5.67;;;19.50;78.40;;;;;;10449505;28;20684;-21
2021/08/01 05:51:31;;;;;;;8.10;5.97;;;19.50;78.20;;;;;;10450841;28;20213;-21
2021/08/01 05:56:55;;;;;;;6.13;5.20;;;19.50;78.90;;;;;;10457951;28;20565;-21
2021/08/01 06:02:17;;;;;;;6.47;5.37;;;19.50;78.50;;;;;;10454658;28;20225;-21
2021/08/01 06:07:39;;;;;;;6.97;5.60;;;19.50;78.40;;;;;;10443438;28;20213;-22
2021/08/01 06:13:02;;;;;;;6.80;5.83;;;19.50;78.30;;;;;;10458422;28;20233;-22
2021/08/01 06:18:24;;;;;;;6.87;6.03;;;19.50;78.30;;;;;;10458190;28;20189;-20
2021/08/01 06:23:48;;;;;;;6.50;5.33;;;19.50;78.40;;;;;;10457741;28;20197;-20
2021/08/01 06:29:11;;;;;;;8.20;5.77;;;19.50;78.30;;;;;;10474652;28;20219;-22
2021/08/01 06:34:34;;;;;;;7.27;6.10;;;19.50;78.60;;;;;;10475540;28;20201;-21
2021/08/01 06:39:56;;;;;;;7.47;6.03;;;19.60;78.80;;;;;;10471727;28;20671;-22
2021/08/01 06:45:20;;;;;;;8.93;6.27;;;19.60;78.50;;;;;;10476330;28;20217;-22
2021/08/01 06:50:42;;;;;;;8.80;6.23;;;19.60;78.50;;;;;;10477064;28;20278;-22
2021/08/01 06:56:06;;;;;;;7.63;6.50;;;19.60;78.30;;;;;;10472501;28;20204;-21
2021/08/01 07:01:30;;;;;;;8.50;6.70;;;19.60;78.20;;;;;;10469338;28;20602;-21
2021/08/01 07:06:52;;;;;;;10.30;5.63;;;19.60;78.00;;;;;;10471834;28;20212;-23
2021/08/01 07:12:15;;;;;;;8.63;5.97;;;19.60;78.40;;;;;;10471149;28;20635;-20
2021/08/01 07:17:39;;;;;;;7.63;5.80;;;19.70;78.70;;;;;;10474123;28;20271;-21
2021/08/01 07:23:01;;;;;;;8.23;5.67;;;19.70;78.20;;;;;;10465265;28;20591;-21
2021/08/01 07:28:23;;;;;;;6.93;5.40;;;19.70;78.00;;;;;;10456112;28;20224;-21
2021/08/01 07:33:47;;;;;;;7.20;6.07;;;19.80;78.50;;;;;;10446995;28;20197;-21
2021/08/01 07:39:09;;;;;;;5.93;5.23;;;19.80;78.00;;;;;;10456060;28;20696;-22
2021/08/01 07:44:35;;;;;;;9.07;5.40;;;19.80;78.00;;;;;;10455028;28;20197;-22
2021/08/01 07:49:59;;;;;;;6.70;5.03;;;19.80;78.20;;;;;;10455070;28;20811;-21
2021/08/01 07:55:21;;;;;;;7.13;5.07;;;19.80;77.90;;;;;;10454546;28;20193;-23
2021/08/01 08:00:43;;;;;;;6.90;4.93;;;19.90;77.90;;;;;;10453437;28;20231;-23
2021/08/01 08:06:07;;;;;;;6.80;4.93;;;19.90;77.80;;;;;;10453813;28;20222;-22
2021/08/01 08:11:29;;;;;;;7.27;4.50;;;20.00;78.00;;;;;;10462568;28;20323;-22
2021/08/01 08:16:51;;;;;;;5.97;3.57;;;20.00;77.90;;;;;;10464554;28;20676;-21
2021/08/01 08:22:15;;;;;;;4.20;3.53;;;20.00;77.40;;;;;;10453112;28;20217;-21
2021/08/01 08:27:37;;;;;;;4.87;3.70;;;20.00;77.70;;;;;;10457820;28;20212;-23
2021/08/01 08:32:59;;;;;;;4.10;3.23;;;20.00;77.40;;;;;;10469930;28;20299;-24
2021/08/01 08:38:22;;;;;;;8.63;3.77;;;20.00;77.40;;;;;;10471599;28;20727;-24
2021/08/01 08:43:45;;;;;;;4.57;3.23;;;20.10;77.50;;;;;;10471870;28;20204;-23
2021/08/01 08:49:11;;;;;;;5.00;3.47;;;20.10;77.30;;;;;;10474771;28;20687;-22
2021/08/01 08:54:39;;;;;;;9.60;3.27;;;20.10;77.30;;;;;;10474162;28;20204;-22
2021/08/01 09:00:04;;;;;;;10.67;3.60;;;20.10;76.70;;;;;;10479553;22;20227;-30
2021/08/01 09:05:26;;;;;;;14.63;3.77;;;20.10;76.80;;;;;;10491113;28;20211;-34
2021/08/01 09:10:50;;;;;;;6.23;2.63;;;20.10;76.50;;;;;;10487974;28;20714;-29
2021/08/01 09:16:13;;;;;;;18.53;3.77;;;20.10;76.20;;;;;;10464722;28;20193;-31
2021/08/01 09:21:35;;;;;;;19.03;3.70;;;20.10;76.80;;;;;;10491250;28;20216;-32
2021/08/01 09:27:02;;;;;;;13.00;3.17;;;20.20;76.20;;;;;;10464062;28;20227;-32
2021/08/01 09:32:25;;;;;;;11.00;2.83;;;20.30;75.60;;;;;;10477226;28;20291;-30
2021/08/01 09:37:56;;;;;;;15.47;3.10;;;20.30;75.90;;;;;;10459352;28;20670;-32
2021/08/01 09:43:21;;;;;;;7.27;2.90;;;20.30;76.00;;;;;;10490431;28;20212;-31
2021/08/01 09:48:43;;;;;;;5.70;2.53;;;20.30;76.20;;;;;;10459288;28;20223;-31
2021/08/01 09:54:06;;;;;;;6.33;2.30;;;20.30;75.50;;;;;;10468804;28;20699;-32
2021/08/01 09:59:31;;;;;;;4.97;2.90;;;20.30;76.10;;;;;;10471930;28;20193;-33
2021/08/01 10:05:18;;;;;;;3.43;3.03;;;20.20;74.70;;;;;;10490086;28;20193;-31
2021/08/01 10:10:40;;;;;;;4.00;3.30;;;20.20;75.20;;;;;;10475025;28;20216;-29
2021/08/01 10:16:04;;;;;;;4.97;3.87;;;20.20;76.10;;;;;;10456528;28;20239;-31
2021/08/01 10:21:26;;;;;;;8.93;3.90;;;20.20;75.60;;;;;;10486071;28;20599;-33
2021/08/01 10:26:52;;;;;;;6.70;3.60;;;20.20;75.50;;;;;;10470611;28;20213;-32
2021/08/01 10:32:20;;;;;;;4.13;3.53;;;20.30;76.20;;;;;;10455991;28;20221;-33
2021/08/01 10:37:48;;;;;;;4.50;3.40;;;20.30;76.30;;;;;;10477485;28;20196;-31
2021/08/01 10:43:13;;;;;;;4.03;3.63;;;20.20;76.10;;;;;;10461695;28;20751;-30
2021/08/01 10:48:37;;;;;;;4.37;3.53;;;20.20;76.40;;;;;;10463693;28;20220;-31
2021/08/01 10:54:34;;;;;;;5.00;3.77;;;20.30;76.20;;;;;;10472599;28;20216;-34
2021/08/01 11:00:10;;;;;;;4.27;3.20;;;20.20;74.50;;;;;;10476451;28;20282;-32
2021/08/01 11:05:40;;;;;;;4.07;2.90;;;20.20;73.50;;;;;;10474456;28;20202;-31
2021/08/01 11:11:13;;;;;;;5.37;2.97;;;20.20;74.10;;;;;;10499708;28;20213;-33
2021/08/01 11:16:49;;;;;;;3.93;2.63;;;20.30;75.00;;;;;;10467517;28;20208;-34
2021/08/01 11:22:44;;;;;;;4.37;2.80;;;20.30;75.50;;;;;;10496637;28;20620;-34
2021/08/01 11:28:28;;;;;;;2.80;2.03;;;20.30;75.80;;;;;;10462425;28;20213;-31
2021/08/01 11:33:53;;;;;;;3.43;2.53;;;20.30;76.00;;;;;;10468002;28;20216;-30
2021/08/01 11:39:15;;;;;;;2.60;2.20;;;20.20;76.20;;;;;;10493870;28;20290;-32
2021/08/01 11:44:57;;;;;;;4.10;2.23;;;20.30;76.40;;;;;;10485914;28;20201;-31
2021/08/01 11:50:28;;;;;;;3.60;2.30;;;20.30;76.10;;;;;;10479205;28;20216;-31
2021/08/01 11:55:50;;;;;;;2.63;2.17;;;20.30;76.50;;;;;;10494844;28;20278;-29
2021/08/01 12:01:17;;;;;;;4.23;2.37;;;20.20;76.30;;;;;;10485952;28;20684;-31
2021/08/01 12:06:41;;;;;;;2.77;1.80;;;20.20;76.40;;;;;;10476528;28;20212;-30
2021/08/01 12:12:05;;;;;;;2.63;1.90;;;20.20;76.50;;;;;;10486703;28;20209;-30
2021/08/01 12:17:36;;;;;;;1.97;1.80;;;20.20;76.40;;;;;;10475322;28;20185;-29
2021/08/01 12:22:58;;;;;;;3.27;2.00;;;20.20;76.40;;;;;;10464982;28;20224;-31
2021/08/01 12:28:20;;;;;;;2.20;2.00;;;20.30;76.40;;;;;;10464981;28;20204;-30
2021/08/01 12:33:44;;;;;;;2.40;2.00;;;20.20;76.30;;;;;;10501604;28;20216;-30
2021/08/01 12:39:07;;;;;;;3.43;2.07;;;20.30;76.30;;;;;;10474633;28;20663;-30
2021/08/01 12:44:30;;;;;;;2.30;2.07;;;20.20;76.30;;;;;;10484147;28;20193;-30
2021/08/01 12:49:55;;;;;;;3.70;2.17;;;20.20;76.30;;;;;;10490990;28;20216;-31
2021/08/01 12:55:17;;;;;;;2.10;1.80;;;20.20;76.20;;;;;;10497596;28;20571;-32
2021/08/01 13:00:55;;;;;;;1.73;1.63;;;20.20;76.10;;;;;;10457416;28;20229;-30
2021/08/01 13:06:27;;;;;;;2.17;1.63;;;20.20;76.00;;;;;;10497647;28;20192;-30
2021/08/01 13:11:50;;;;;;;1.43;1.20;;;20.20;75.20;;;;;;10496552;28;20696;-34
2021/08/01 13:17:14;;;;;;;1.83;1.10;;;20.10;75.30;;;;;;10498545;28;20188;-38
2021/08/01 13:22:37;;;;;;;2.03;1.23;;;19.90;75.90;;;;;;10484421;28;20209;-34
2021/08/01 13:28:00;;;;;;;3.23;1.27;;;19.90;77.30;;;;;;10462668;28;20216;-29
2021/08/01 13:33:22;;;;;;;2.33;1.40;;;19.80;78.30;;;;;;10493256;28;20220;-31
2021/08/01 13:38:45;;;;;;;3.90;1.60;;;19.70;79.30;;;;;;10469271;28;20200;-31
2021/08/01 13:44:11;;;;;;;1.73;1.50;;;19.60;80.20;;;;;;10481327;28;20216;-28
2021/08/01 13:49:34;;;;;;;2.27;1.63;;;19.60;80.80;;;;;;10469069;28;20213;-28
2021/08/01 13:54:57;;;;;;;3.17;1.50;;;19.70;81.10;;;;;;10459350;28;20197;-32
2021/08/01 14:00:19;;;;;;;2.23;1.53;;;19.70;80.60;;;;;;10483059;28;20228;-29
2021/08/01 14:05:41;;;;;;;2.83;1.70;;;19.70;80.40;;;;;;10483904;28;20208;-34
2021/08/01 14:11:05;;;;;;;1.90;1.77;;;19.80;80.60;;;;;;10473158;28;20231;-31
2021/08/01 14:16:27;;;;;;;1.73;1.63;;;19.70;82.00;;;;;;10493860;28;20200;-31
2021/08/01 14:21:49;;;;;;;2.00;1.80;;;19.70;81.60;;;;;;10483181;28;20216;-32
2021/08/01 14:27:13;;;;;;;3.63;1.83;;;19.70;81.70;;;;;;10490743;28;20213;-31
2021/08/01 14:32:42;;;;;;;1.63;1.30;;;19.70;81.90;;;;;;10467821;28;20221;-29
2021/08/01 14:38:04;;;;;;;3.40;1.70;;;19.70;82.70;;;;;;10475268;28;20186;-30
2021/08/01 14:43:29;;;;;;;1.67;1.47;;;19.80;82.40;;;;;;10500611;28;20220;-30
2021/08/01 14:48:58;;;;;;;2.03;1.83;;;19.80;82.90;;;;;;10504649;28;20220;-30
2021/08/01 14:54:20;;;;;;;2.90;1.80;;;19.90;82.40;;;;;;10490800;28;20212;-33
2021/08/01 14:59:46;;;;;;;2.53;2.13;;;19.90;82.60;;;;;;10462758;28;20897;-32
2021/08/01 15:05:20;;;;;;;2.87;2.30;;;19.90;82.90;;;;;;10483031;28;20201;-33
2021/08/01 15:10:46;;;;;;;2.77;2.57;;;19.90;82.70;;;;;;10515700;28;20216;-32
2021/08/01 15:16:12;;;;;;;2.57;2.23;;;19.90;82.90;;;;;;10543778;28;20196;-30
2021/08/01 15:21:44;;;;;;;2.40;2.20;;;19.90;82.40;;;;;;10532940;28;20287;-30
2021/08/01 15:27:07;;;;;;;1.63;1.53;;;19.90;82.90;;;;;;10541589;28;20239;-31
2021/08/01 15:32:32;;;;;;;2.43;2.00;;;19.90;81.90;;;;;;10543979;28;20216;-31
2021/08/01 15:37:55;;;;;;;1.50;1.40;;;19.90;80.70;;;;;;10501254;28;20275;-33
2021/08/01 15:43:19;;;;;;;1.97;1.77;;;19.80;80.50;;;;;;10518593;28;20268;-30
2021/08/01 15:48:43;;;;;;;1.90;1.23;;;19.80;80.70;;;;;;10486048;28;20271;-32
2021/08/01 15:54:09;;;;;;;2.43;1.27;;;19.90;80.60;;;;;;10546154;28;20227;-31
2021/08/01 15:59:42;;;;;;;1.03;1.03;;;19.90;80.30;;;;;;10542082;28;20180;-32
2021/08/01 16:05:07;;;;;;;1.30;1.20;;;19.90;79.70;;;;;;10504267;28;20184;-32
2021/08/01 16:10:33;;;;;;;1.23;1.10;;;20.00;80.00;;;;;;10502749;28;20222;-31
2021/08/01 16:16:00;;;;;;;1.23;0.90;;;20.00;80.00;;;;;;10503163;28;20192;-31
2021/08/01 16:21:26;;;;;;;1.20;0.90;;;20.00;79.50;;;;;;10503734;28;20216;-31
2021/08/01 16:26:49;;;;;;;1.20;0.83;;;20.00;78.60;;;;;;10502735;28;20680;-30
2021/08/01 16:32:12;;;;;;;0.67;0.67;;;20.00;78.90;;;;;;10540020;28;20215;-31
2021/08/01 16:37:36;;;;;;;1.63;1.07;;;19.90;78.40;;;;;;10500897;28;20544;-32
2021/08/01 16:43:05;;;;;;;0.97;0.97;;;20.00;78.70;;;;;;10541468;28;20215;-31
2021/08/01 16:48:36;;;;;;;0.80;0.80;;;20.00;78.70;;;;;;10527972;28;20215;-32
2021/08/01 16:54:07;;;;;;;1.00;0.70;;;20.00;78.60;;;;;;10500273;28;20718;-31
2021/08/01 16:59:36;;;;;;;2.60;0.90;;;20.00;78.50;;;;;;10498063;28;20272;-32
2021/08/01 17:04:58;;;;;;;1.23;1.00;;;20.00;78.70;;;;;;10492341;28;20204;-31
2021/08/01 17:10:26;;;;;;;2.23;1.20;;;20.00;78.50;;;;;;10510129;28;20646;-32
2021/08/01 17:15:49;;;;;;;4.43;1.00;;;20.00;78.80;;;;;;10499788;28;20200;-32
2021/08/01 17:21:11;;;;;;;5.43;1.20;;;20.10;78.90;;;;;;10531070;28;20216;-29
2021/08/01 17:26:37;;;;;;;3.00;1.00;;;20.10;78.70;;;;;;10500630;28;20188;-31
2021/08/01 17:31:59;;;;;;;2.57;0.97;;;20.00;78.70;;;;;;10497694;28;20745;-34
2021/08/01 17:37:24;;;;;;;2.57;0.90;;;20.10;78.60;;;;;;10500821;28;21738;-31
2021/08/01 17:42:56;;;;;;;2.73;0.97;;;20.10;78.80;;;;;;10501612;28;20606;-31
2021/08/01 17:48:18;;;;;;;2.70;0.80;;;20.10;78.60;;;;;;10517551;28;20216;-34
2021/08/01 17:53:41;;;;;;;1.27;0.90;;;20.10;78.80;;;;;;10503386;28;20212;-34
2021/08/01 17:59:06;;;;;;;1.30;1.10;;;20.10;78.60;;;;;;10504933;28;20196;-29
2021/08/01 18:04:30;;;;;;;4.20;1.10;;;20.10;78.60;;;;;;10503808;28;20204;-31
2021/08/01 18:09:56;;;;;;;2.20;1.07;;;20.10;78.40;;;;;;10493222;28;20220;-31
2021/08/01 18:15:20;;;;;;;2.93;1.00;;;20.10;78.40;;;;;;10489301;28;20232;-29
2021/08/01 18:20:43;;;;;;;1.17;1.00;;;20.00;78.80;;;;;;10483292;28;20212;-33
2021/08/01 18:26:05;;;;;;;2.10;0.90;;;20.00;78.70;;;;;;10473512;28;20702;-30
2021/08/01 18:31:29;;;;;;;3.33;1.03;;;20.00;78.30;;;;;;10454257;28;20220;-33
2021/08/01 18:36:54;;;;;;;1.50;0.70;;;20.00;78.60;;;;;;10457285;28;20201;-30
2021/08/01 18:42:18;;;;;;;1.67;1.03;;;20.00;79.10;;;;;;10486633;28;20216;-30
2021/08/01 18:47:43;;;;;;;3.70;1.30;;;20.00;78.90;;;;;;10454824;28;20584;-30
2021/08/01 18:53:05;;;;;;;1.17;1.07;;;19.90;79.10;;;;;;10452754;28;20228;-31
2021/08/01 18:58:30;;;;;;;1.93;1.00;;;19.90;78.80;;;;;;10482569;28;20193;-31
2021/08/01 19:03:55;;;;;;;1.50;0.90;;;20.00;79.00;;;;;;10493174;28;20228;-31
2021/08/01 19:09:19;;;;;;;1.00;1.00;;;20.00;78.80;;;;;;10494781;28;20699;-32
2021/08/01 19:14:41;;;;;;;3.20;1.30;;;20.00;78.70;;;;;;10493252;28;20200;-31
2021/08/01 19:20:07;;;;;;;2.30;1.00;;;20.00;78.80;;;;;;10487372;28;20224;-33
2021/08/01 19:25:34;;;;;;;2.27;1.27;;;19.90;79.00;;;;;;10483780;28;20682;-32
2021/08/01 19:30:56;;;;;;;1.53;1.03;;;19.90;78.80;;;;;;10494333;28;20726;-29
2021/08/01 19:36:20;;;;;;;1.90;1.10;;;19.80;78.90;;;;;;10492696;28;20207;-32
2021/08/01 19:41:43;;;;;;;1.60;1.10;;;19.80;79.60;;;;;;10489589;28;20231;-34
2021/08/01 19:47:07;;;;;;;1.77;1.20;;;19.70;79.60;;;;;;10498971;28;20337;-30
2021/08/01 19:52:31;;;;;;;2.53;1.17;;;19.60;79.70;;;;;;10504446;28;20219;-30
2021/08/01 19:57:53;;;;;;;4.00;1.57;;;19.50;80.80;;;;;;10500526;28;20233;-28
2021/08/01 20:03:15;;;;;;;1.80;1.50;;;19.50;80.90;;;;;;10516347;28;20924;-29
2021/08/01 20:08:39;;;;;;;1.80;1.30;;;19.50;81.20;;;;;;10515015;28;20426;-29
2021/08/01 20:14:01;;;;;;;2.73;1.30;;;19.50;81.50;;;;;;10519265;28;20591;-29
2021/08/01 20:19:23;;;;;;;1.67;1.10;;;19.40;81.20;;;;;;10518957;28;20567;-30
2021/08/01 20:24:46;;;;;;;1.97;1.17;;;19.40;81.40;;;;;;10512935;28;20216;-31
2021/08/01 20:30:09;;;;;;;2.50;1.20;;;19.40;81.10;;;;;;10513785;28;20567;-29
2021/08/01 20:35:31;;;;;;;3.37;1.20;;;19.40;81.40;;;;;;10517335;28;20191;-33
2021/08/01 20:40:55;;;;;;;1.43;1.33;;;19.50;80.50;;;;;;10512609;28;20787;-33
2021/08/01 20:46:17;;;;;;;2.47;1.20;;;19.50;80.30;;;;;;10523454;28;20598;-29
2021/08/01 20:51:39;;;;;;;2.33;1.40;;;19.40;80.50;;;;;;10496679;28;20224;-30
2021/08/01 20:57:04;;;;;;;3.03;1.47;;;19.50;80.30;;;;;;10497334;28;20192;-30
2021/08/01 21:02:26;;;;;;;2.17;1.10;;;19.50;80.30;;;;;;10496864;28;20587;-29
2021/08/01 21:07:48;;;;;;;2.93;1.30;;;19.50;80.70;;;;;;10495264;28;20206;-29
2021/08/01 21:13:11;;;;;;;1.87;1.17;;;19.60;80.20;;;;;;10497136;28;20560;-29
2021/08/01 21:18:33;;;;;;;1.60;1.17;;;19.50;80.00;;;;;;10497792;28;20196;-29
2021/08/01 21:23:55;;;;;;;4.33;1.70;;;19.50;80.30;;;;;;10495038;28;20843;-30
2021/08/01 21:29:19;;;;;;;4.50;1.50;;;19.40;80.20;;;;;;10494327;28;20687;-29
2021/08/01 21:34:41;;;;;;;2.70;1.20;;;19.40;80.50;;;;;;10495292;28;20199;-30
2021/08/01 21:40:04;;;;;;;1.90;1.20;;;19.50;79.90;;;;;;10494125;28;20212;-31
2021/08/01 21:45:28;;;;;;;3.23;1.30;;;19.50;80.00;;;;;;10495869;28;20572;-30
2021/08/01 21:50:50;;;;;;;2.13;1.30;;;19.40;79.70;;;;;;10520029;28;20224;-31
2021/08/01 21:56:12;;;;;;;3.47;1.50;;;19.50;80.00;;;;;;10509126;22;20236;-23
2021/08/01 22:01:37;;;;;;;2.33;1.47;;;19.50;79.70;;;;;;10450001;28;20196;-24
2021/08/01 22:07:00;;;;;;;1.80;1.30;;;19.40;79.60;;;;;;10422725;28;20213;-21
2021/08/01 22:12:22;;;;;;;2.23;1.73;;;19.40;80.10;;;;;;10449652;28;20803;-22
2021/08/01 22:17:46;;;;;;;4.47;1.17;;;19.40;79.80;;;;;;10485435;28;20223;-22
2021/08/01 22:23:08;;;;;;;4.70;1.60;;;19.40;79.90;;;;;;10467605;28;20197;-23
2021/08/01 22:28:34;;;;;;;3.07;1.50;;;19.30;79.40;;;;;;10451087;28;20213;-22
2021/08/01 22:33:59;;;;;;;2.73;1.27;;;19.30;79.90;;;;;;10490050;28;20213;-23
2021/08/01 22:39:22;;;;;;;2.43;1.43;;;19.30;79.90;;;;;;10499549;28;20660;-22
2021/08/01 22:44:45;;;;;;;1.63;1.20;;;19.30;79.90;;;;;;10498321;28;20573;-23
2021/08/01 22:50:12;;;;;;;3.27;1.40;;;19.30;79.70;;;;;;10497485;28;20220;-23
2021/08/01 22:55:34;;;;;;;2.13;1.23;;;19.40;79.60;;;;;;10483537;28;20243;-22
2021/08/01 23:01:01;;;;;;;4.60;1.70;;;19.30;79.40;;;;;;10455698;28;20197;-23
2021/08/01 23:06:33;;;;;;;3.33;1.40;;;19.30;79.20;;;;;;10466935;28;20216;-22
2021/08/01 23:11:58;;;;;;;1.87;1.33;;;19.30;79.70;;;;;;10464372;28;20230;-22
2021/08/01 23:17:33;;;;;;;2.17;1.63;;;19.30;79.20;;;;;;10456818;28;20216;-22
2021/08/01 23:23:04;;;;;;;1.77;1.20;;;19.30;79.00;;;;;;10456581;28;20565;-24
2021/08/01 23:28:27;;;;;;;4.63;1.10;;;19.20;78.90;;;;;;10456335;28;20672;-22
2021/08/01 23:33:49;;;;;;;2.40;1.33;;;19.30;78.60;;;;;;10457318;28;20676;-21
2021/08/01 23:39:13;;;;;;;2.83;1.40;;;19.20;78.40;;;;;;10480729;28;20200;-22
2021/08/01 23:44:36;;;;;;;5.03;1.37;;;19.20;78.60;;;;;;10497294;28;20250;-22
2021/08/01 23:49:59;;;;;;;3.70;1.67;;;19.20;78.40;;;;;;10496444;28;20212;-23
2021/08/01 23:55:28;;;;;;;5.33;1.50;;;19.20;78.20;;;;;;10496689;28;20239;-22
